sensor_id;sensor_type;location;lat;lon;timestamp;temperature;humidity
15143;DHT22;7672;50.834;6.286;2023-03-14T00:01:44;14.00;99.90
15143;DHT22;7672;50.834;6.286;2023-03-14T00:04:11;14.00;99.90
15143;DHT22;7672;50.834;6.286;2023-03-14T00:06:38;14.00;99.90
15143;DHT22;7672;50.834;6.286;2023-03-14T00:09:05;14.00;99.90
15143;DHT22;7672;50.834;6.286;2023-03-14T00:11:32;14.00;99.90
15143;DHT22;7672;50.834;6.286;2023-03-14T00:13:59;14.00;99.90
15143;DHT22;7672;50.834;6.286;2023-03-14T00:16:26;14.00;99.90
15143;DHT22;7672;50.834;6.286;2023-03-14T00:18:53;14.00;99.90
15143;DHT22;7672;50.834;6.286;2023-03-14T00:21:20;14.00;99.90
15143;DHT22;7672;50.834;6.286;2023-03-14T00:23:46;14.00;99.90
15143;DHT22;7672;50.834;6.286;2023-03-14T00:26:15;14.00;99.90
15143;DHT22;7672;50.834;6.286;2023-03-14T00:28:44;14.00;99.90
15143;DHT22;7672;50.834;6.286;2023-03-14T00:31:15;14.00;99.90
15143;DHT22;7672;50.834;6.286;2023-03-14T00:33:43;13.90;99.90
15143;DHT22;7672;50.834;6.286;2023-03-14T00:36:16;13.90;99.90
15143;DHT22;7672;50.834;6.286;2023-03-14T00:38:45;13.80;99.90
15143;DHT22;7672;50.834;6.286;2023-03-14T00:41:16;13.70;99.90
15143;DHT22;7672;50.834;6.286;2023-03-14T00:43:44;13.60;99.90
15143;DHT22;7672;50.834;6.286;2023-03-14T00:46:12;13.50;99.90
15143;DHT22;7672;50.834;6.286;2023-03-14T00:48:39;13.40;99.90
15143;DHT22;7672;50.834;6.286;2023-03-14T00:51:08;13.30;99.90
15143;DHT22;7672;50.834;6.286;2023-03-14T00:53:36;13.10;99.90
15143;DHT22;7672;50.834;6.286;2023-03-14T00:56:06;13.00;99.90
15143;DHT22;7672;50.834;6.286;2023-03-14T00:58:35;12.90;99.90
15143;DHT22;7672;50.834;6.286;2023-03-14T01:01:17;12.90;99.90
15143;DHT22;7672;50.834;6.286;2023-03-14T01:03:45;12.70;99.90
15143;DHT22;7672;50.834;6.286;2023-03-14T01:06:14;12.70;99.90
15143;DHT22;7672;50.834;6.286;2023-03-14T01:08:43;12.60;99.90
15143;DHT22;7672;50.834;6.286;2023-03-14T01:11:13;12.60;99.90
15143;DHT22;7672;50.834;6.286;2023-03-14T01:13:43;12.50;99.90
15143;DHT22;7672;50.834;6.286;2023-03-14T01:16:11;12.40;99.90
15143;DHT22;7672;50.834;6.286;2023-03-14T01:18:41;12.40;99.90
15143;DHT22;7672;50.834;6.286;2023-03-14T01:21:19;12.30;99.90
15143;DHT22;7672;50.834;6.286;2023-03-14T01:24:05;12.20;99.90
15143;DHT22;7672;50.834;6.286;2023-03-14T01:26:34;12.30;99.90
15143;DHT22;7672;50.834;6.286;2023-03-14T01:29:02;12.20;99.90
15143;DHT22;7672;50.834;6.286;2023-03-14T01:31:29;12.20;99.90
15143;DHT22;7672;50.834;6.286;2023-03-14T01:33:56;12.20;99.90
15143;DHT22;7672;50.834;6.286;2023-03-14T01:36:23;12.20;99.90
15143;DHT22;7672;50.834;6.286;2023-03-14T01:38:50;12.20;99.90
15143;DHT22;7672;50.834;6.286;2023-03-14T01:41:23;12.10;99.90
15143;DHT22;7672;50.834;6.286;2023-03-14T01:43:51;12.10;99.90
15143;DHT22;7672;50.834;6.286;2023-03-14T01:46:40;12.10;99.90
15143;DHT22;7672;50.834;6.286;2023-03-14T01:49:28;12.10;99.90
15143;DHT22;7672;50.834;6.286;2023-03-14T01:55:15;12.00;99.90
15143;DHT22;7672;50.834;6.286;2023-03-14T01:57:52;11.90;99.90
15143;DHT22;7672;50.834;6.286;2023-03-14T02:00:25;11.90;99.90
15143;DHT22;7672;50.834;6.286;2023-03-14T02:02:56;11.90;99.90
15143;DHT22;7672;50.834;6.286;2023-03-14T02:05:29;11.80;99.90
15143;DHT22;7672;50.834;6.286;2023-03-14T02:08:00;11.80;99.90
15143;DHT22;7672;50.834;6.286;2023-03-14T02:10:35;11.80;99.90
15143;DHT22;7672;50.834;6.286;2023-03-14T02:13:07;11.70;99.90
15143;DHT22;7672;50.834;6.286;2023-03-14T02:15:34;11.70;99.90
15143;DHT22;7672;50.834;6.286;2023-03-14T02:18:02;11.70;99.90
15143;DHT22;7672;50.834;6.286;2023-03-14T02:23:18;11.70;99.90
15143;DHT22;7672;50.834;6.286;2023-03-14T02:26:31;11.70;99.90
15143;DHT22;7672;50.834;6.286;2023-03-14T02:29:05;11.70;99.90
15143;DHT22;7672;50.834;6.286;2023-03-14T02:31:32;11.70;99.90
15143;DHT22;7672;50.834;6.286;2023-03-14T02:34:00;11.70;99.90
15143;DHT22;7672;50.834;6.286;2023-03-14T02:36:28;11.70;99.90
15143;DHT22;7672;50.834;6.286;2023-03-14T02:39:23;11.70;99.90
15143;DHT22;7672;50.834;6.286;2023-03-14T02:41:54;11.80;99.90
15143;DHT22;7672;50.834;6.286;2023-03-14T02:44:21;11.80;99.90
15143;DHT22;7672;50.834;6.286;2023-03-14T02:46:47;11.80;99.90
15143;DHT22;7672;50.834;6.286;2023-03-14T02:49:14;11.90;99.90
15143;DHT22;7672;50.834;6.286;2023-03-14T02:51:44;11.90;99.90
15143;DHT22;7672;50.834;6.286;2023-03-14T02:54:14;11.90;99.90
15143;DHT22;7672;50.834;6.286;2023-03-14T02:56:42;11.90;99.90
15143;DHT22;7672;50.834;6.286;2023-03-14T02:59:09;12.00;99.90
15143;DHT22;7672;50.834;6.286;2023-03-14T03:01:36;12.00;99.90
15143;DHT22;7672;50.834;6.286;2023-03-14T03:04:03;12.00;99.90
15143;DHT22;7672;50.834;6.286;2023-03-14T03:06:30;12.00;99.90
15143;DHT22;7672;50.834;6.286;2023-03-14T03:08:56;12.00;99.90
15143;DHT22;7672;50.834;6.286;2023-03-14T03:11:23;12.00;99.90
15143;DHT22;7672;50.834;6.286;2023-03-14T03:13:50;12.00;99.90
15143;DHT22;7672;50.834;6.286;2023-03-14T03:16:17;12.00;99.90
15143;DHT22;7672;50.834;6.286;2023-03-14T03:18:43;12.00;99.90
15143;DHT22;7672;50.834;6.286;2023-03-14T03:21:10;11.90;99.90
15143;DHT22;7672;50.834;6.286;2023-03-14T03:23:37;11.90;99.90
15143;DHT22;7672;50.834;6.286;2023-03-14T03:26:04;12.00;99.90
15143;DHT22;7672;50.834;6.286;2023-03-14T03:28:31;11.90;99.90
15143;DHT22;7672;50.834;6.286;2023-03-14T03:30:58;11.90;99.90
15143;DHT22;7672;50.834;6.286;2023-03-14T03:33:25;11.90;99.90
15143;DHT22;7672;50.834;6.286;2023-03-14T03:35:51;11.90;99.90
15143;DHT22;7672;50.834;6.286;2023-03-14T03:38:19;11.90;99.90
15143;DHT22;7672;50.834;6.286;2023-03-14T03:40:46;12.10;99.90
15143;DHT22;7672;50.834;6.286;2023-03-14T03:43:13;11.90;99.90
15143;DHT22;7672;50.834;6.286;2023-03-14T03:45:40;11.90;99.90
15143;DHT22;7672;50.834;6.286;2023-03-14T03:48:07;11.90;99.90
15143;DHT22;7672;50.834;6.286;2023-03-14T03:50:34;11.90;99.90
15143;DHT22;7672;50.834;6.286;2023-03-14T03:53:00;12.10;99.90
15143;DHT22;7672;50.834;6.286;2023-03-14T03:55:27;11.90;99.90
15143;DHT22;7672;50.834;6.286;2023-03-14T03:57:54;11.90;99.90
15143;DHT22;7672;50.834;6.286;2023-03-14T04:00:21;11.90;99.90
15143;DHT22;7672;50.834;6.286;2023-03-14T04:02:48;11.80;99.90
15143;DHT22;7672;50.834;6.286;2023-03-14T04:05:15;11.90;99.90
15143;DHT22;7672;50.834;6.286;2023-03-14T04:07:42;11.80;99.90
15143;DHT22;7672;50.834;6.286;2023-03-14T04:10:09;11.80;99.90
15143;DHT22;7672;50.834;6.286;2023-03-14T04:12:36;11.80;99.90
15143;DHT22;7672;50.834;6.286;2023-03-14T04:15:03;11.80;99.90
15143;DHT22;7672;50.834;6.286;2023-03-14T04:17:30;11.80;99.90
15143;DHT22;7672;50.834;6.286;2023-03-14T04:19:57;11.80;99.90
15143;DHT22;7672;50.834;6.286;2023-03-14T04:22:24;11.80;99.90
15143;DHT22;7672;50.834;6.286;2023-03-14T04:24:50;11.80;99.90
15143;DHT22;7672;50.834;6.286;2023-03-14T04:27:17;11.80;99.90
15143;DHT22;7672;50.834;6.286;2023-03-14T04:29:44;11.80;99.90
15143;DHT22;7672;50.834;6.286;2023-03-14T04:32:11;11.80;99.90
15143;DHT22;7672;50.834;6.286;2023-03-14T04:34:38;11.80;99.90
15143;DHT22;7672;50.834;6.286;2023-03-14T04:37:04;11.80;99.90
15143;DHT22;7672;50.834;6.286;2023-03-14T04:39:31;11.70;99.90
15143;DHT22;7672;50.834;6.286;2023-03-14T04:41:58;11.70;99.90
15143;DHT22;7672;50.834;6.286;2023-03-14T04:44:25;11.70;99.90
15143;DHT22;7672;50.834;6.286;2023-03-14T04:46:52;11.70;99.90
15143;DHT22;7672;50.834;6.286;2023-03-14T04:49:18;11.70;99.90
15143;DHT22;7672;50.834;6.286;2023-03-14T04:51:45;11.70;99.90
15143;DHT22;7672;50.834;6.286;2023-03-14T04:54:12;11.70;99.90
15143;DHT22;7672;50.834;6.286;2023-03-14T04:56:39;11.70;99.90
15143;DHT22;7672;50.834;6.286;2023-03-14T04:59:06;11.70;99.90
15143;DHT22;7672;50.834;6.286;2023-03-14T05:01:35;11.70;99.90
15143;DHT22;7672;50.834;6.286;2023-03-14T05:04:02;11.70;99.90
15143;DHT22;7672;50.834;6.286;2023-03-14T05:06:29;11.70;99.90
15143;DHT22;7672;50.834;6.286;2023-03-14T05:08:55;11.70;99.90
15143;DHT22;7672;50.834;6.286;2023-03-14T05:11:22;11.70;99.90
15143;DHT22;7672;50.834;6.286;2023-03-14T05:13:49;11.70;99.90
15143;DHT22;7672;50.834;6.286;2023-03-14T05:16:16;11.80;99.90
15143;DHT22;7672;50.834;6.286;2023-03-14T05:18:43;11.40;99.90
15143;DHT22;7672;50.834;6.286;2023-03-14T05:21:09;11.70;99.90
15143;DHT22;7672;50.834;6.286;2023-03-14T05:23:36;11.70;99.90
15143;DHT22;7672;50.834;6.286;2023-03-14T05:26:03;11.70;99.90
15143;DHT22;7672;50.834;6.286;2023-03-14T05:28:30;11.60;99.90
15143;DHT22;7672;50.834;6.286;2023-03-14T05:30:57;11.60;99.90
15143;DHT22;7672;50.834;6.286;2023-03-14T05:33:24;11.40;99.90
15143;DHT22;7672;50.834;6.286;2023-03-14T05:35:50;11.70;99.90
15143;DHT22;7672;50.834;6.286;2023-03-14T05:38:17;11.60;99.90
15143;DHT22;7672;50.834;6.286;2023-03-14T05:40:45;11.60;99.90
15143;DHT22;7672;50.834;6.286;2023-03-14T05:43:13;11.70;99.90
15143;DHT22;7672;50.834;6.286;2023-03-14T05:45:42;11.70;99.90
15143;DHT22;7672;50.834;6.286;2023-03-14T05:48:09;11.60;99.90
15143;DHT22;7672;50.834;6.286;2023-03-14T05:50:36;11.90;99.90
15143;DHT22;7672;50.834;6.286;2023-03-14T05:53:03;11.70;99.90
15143;DHT22;7672;50.834;6.286;2023-03-14T05:55:31;11.60;99.90
15143;DHT22;7672;50.834;6.286;2023-03-14T05:57:58;11.60;99.90
15143;DHT22;7672;50.834;6.286;2023-03-14T06:00:24;11.60;99.90
15143;DHT22;7672;50.834;6.286;2023-03-14T06:02:51;11.60;99.90
15143;DHT22;7672;50.834;6.286;2023-03-14T06:05:18;11.60;99.90
15143;DHT22;7672;50.834;6.286;2023-03-14T06:07:45;11.60;99.90
15143;DHT22;7672;50.834;6.286;2023-03-14T06:10:12;11.70;99.90
15143;DHT22;7672;50.834;6.286;2023-03-14T06:12:39;11.60;99.90
15143;DHT22;7672;50.834;6.286;2023-03-14T06:15:06;11.60;99.90
15143;DHT22;7672;50.834;6.286;2023-03-14T06:17:33;11.60;99.90
15143;DHT22;7672;50.834;6.286;2023-03-14T06:20:00;11.60;99.90
15143;DHT22;7672;50.834;6.286;2023-03-14T06:22:27;11.70;99.90
15143;DHT22;7672;50.834;6.286;2023-03-14T06:24:54;11.70;99.90
15143;DHT22;7672;50.834;6.286;2023-03-14T06:27:20;11.70;99.90
15143;DHT22;7672;50.834;6.286;2023-03-14T06:29:47;11.70;99.90
15143;DHT22;7672;50.834;6.286;2023-03-14T06:32:16;11.80;99.90
15143;DHT22;7672;50.834;6.286;2023-03-14T06:34:44;11.80;99.90
15143;DHT22;7672;50.834;6.286;2023-03-14T06:37:11;11.80;99.90
15143;DHT22;7672;50.834;6.286;2023-03-14T06:39:38;11.90;99.90
15143;DHT22;7672;50.834;6.286;2023-03-14T06:42:05;11.90;99.90
15143;DHT22;7672;50.834;6.286;2023-03-14T06:44:32;12.10;99.90
15143;DHT22;7672;50.834;6.286;2023-03-14T06:46:59;12.20;99.90
15143;DHT22;7672;50.834;6.286;2023-03-14T06:49:26;12.30;99.90
15143;DHT22;7672;50.834;6.286;2023-03-14T06:51:52;12.40;99.90
15143;DHT22;7672;50.834;6.286;2023-03-14T06:54:19;12.40;99.90
15143;DHT22;7672;50.834;6.286;2023-03-14T06:56:46;12.50;99.90
15143;DHT22;7672;50.834;6.286;2023-03-14T06:59:13;12.50;99.90
15143;DHT22;7672;50.834;6.286;2023-03-14T07:01:40;12.50;99.90
15143;DHT22;7672;50.834;6.286;2023-03-14T07:04:07;12.50;99.90
15143;DHT22;7672;50.834;6.286;2023-03-14T07:06:35;12.60;99.90
15143;DHT22;7672;50.834;6.286;2023-03-14T07:09:02;12.70;99.90
15143;DHT22;7672;50.834;6.286;2023-03-14T07:11:29;12.70;99.90
15143;DHT22;7672;50.834;6.286;2023-03-14T07:13:56;12.80;99.90
15143;DHT22;7672;50.834;6.286;2023-03-14T07:16:23;12.90;99.90
15143;DHT22;7672;50.834;6.286;2023-03-14T07:18:50;13.00;99.90
15143;DHT22;7672;50.834;6.286;2023-03-14T07:21:16;13.00;99.90
15143;DHT22;7672;50.834;6.286;2023-03-14T07:23:43;13.00;99.90
15143;DHT22;7672;50.834;6.286;2023-03-14T07:26:10;13.00;99.90
15143;DHT22;7672;50.834;6.286;2023-03-14T07:28:37;13.00;99.90
15143;DHT22;7672;50.834;6.286;2023-03-14T07:31:07;13.10;99.90
15143;DHT22;7672;50.834;6.286;2023-03-14T07:33:38;12.90;99.90
15143;DHT22;7672;50.834;6.286;2023-03-14T07:36:06;12.80;99.90
15143;DHT22;7672;50.834;6.286;2023-03-14T07:41:09;13.00;99.90
15143;DHT22;7672;50.834;6.286;2023-03-14T07:43:36;13.30;99.90
15143;DHT22;7672;50.834;6.286;2023-03-14T07:46:03;13.00;99.90
15143;DHT22;7672;50.834;6.286;2023-03-14T07:48:29;13.00;99.90
15143;DHT22;7672;50.834;6.286;2023-03-14T07:50:56;13.00;99.90
15143;DHT22;7672;50.834;6.286;2023-03-14T07:53:24;13.00;99.90
15143;DHT22;7672;50.834;6.286;2023-03-14T07:55:52;13.00;99.90
15143;DHT22;7672;50.834;6.286;2023-03-14T07:58:20;13.00;99.90
15143;DHT22;7672;50.834;6.286;2023-03-14T08:00:51;13.10;99.90
15143;DHT22;7672;50.834;6.286;2023-03-14T08:03:19;13.20;99.90
15143;DHT22;7672;50.834;6.286;2023-03-14T08:05:49;13.20;99.90
15143;DHT22;7672;50.834;6.286;2023-03-14T08:08:17;13.20;99.90
15143;DHT22;7672;50.834;6.286;2023-03-14T08:10:45;13.30;99.90
15143;DHT22;7672;50.834;6.286;2023-03-14T08:13:12;13.30;99.90
15143;DHT22;7672;50.834;6.286;2023-03-14T08:15:39;13.40;99.90
15143;DHT22;7672;50.834;6.286;2023-03-14T08:18:06;13.40;99.90
15143;DHT22;7672;50.834;6.286;2023-03-14T08:20:33;13.40;99.90
15143;DHT22;7672;50.834;6.286;2023-03-14T08:23:02;13.40;99.90
15143;DHT22;7672;50.834;6.286;2023-03-14T08:25:29;13.50;99.90
15143;DHT22;7672;50.834;6.286;2023-03-14T08:27:56;13.50;99.90
15143;DHT22;7672;50.834;6.286;2023-03-14T08:30:23;13.50;99.90
15143;DHT22;7672;50.834;6.286;2023-03-14T08:32:50;13.80;99.90
15143;DHT22;7672;50.834;6.286;2023-03-14T08:35:17;13.50;99.90
15143;DHT22;7672;50.834;6.286;2023-03-14T08:37:45;13.50;99.90
15143;DHT22;7672;50.834;6.286;2023-03-14T08:40:12;13.50;99.90
15143;DHT22;7672;50.834;6.286;2023-03-14T08:42:40;13.50;99.90
15143;DHT22;7672;50.834;6.286;2023-03-14T08:45:08;13.50;99.90
15143;DHT22;7672;50.834;6.286;2023-03-14T08:47:35;13.50;99.90
15143;DHT22;7672;50.834;6.286;2023-03-14T08:50:03;13.50;99.90
15143;DHT22;7672;50.834;6.286;2023-03-14T08:52:32;13.50;99.90
15143;DHT22;7672;50.834;6.286;2023-03-14T08:54:59;13.50;99.90
15143;DHT22;7672;50.834;6.286;2023-03-14T08:57:26;13.50;99.90
15143;DHT22;7672;50.834;6.286;2023-03-14T08:59:55;13.40;99.90
15143;DHT22;7672;50.834;6.286;2023-03-14T09:02:23;13.40;99.90
15143;DHT22;7672;50.834;6.286;2023-03-14T09:04:51;13.40;99.90
15143;DHT22;7672;50.834;6.286;2023-03-14T09:07:19;13.30;99.90
15143;DHT22;7672;50.834;6.286;2023-03-14T09:09:45;13.30;99.90
15143;DHT22;7672;50.834;6.286;2023-03-14T09:12:13;13.40;99.90
15143;DHT22;7672;50.834;6.286;2023-03-14T09:14:39;12.90;99.90
15143;DHT22;7672;50.834;6.286;2023-03-14T09:17:06;12.80;99.90
15143;DHT22;7672;50.834;6.286;2023-03-14T09:19:34;12.60;99.90
15143;DHT22;7672;50.834;6.286;2023-03-14T09:22:01;12.50;99.90
15143;DHT22;7672;50.834;6.286;2023-03-14T09:24:28;12.40;99.90
15143;DHT22;7672;50.834;6.286;2023-03-14T09:26:55;12.30;99.90
15143;DHT22;7672;50.834;6.286;2023-03-14T09:29:25;12.50;99.90
15143;DHT22;7672;50.834;6.286;2023-03-14T09:31:52;12.10;99.90
15143;DHT22;7672;50.834;6.286;2023-03-14T09:34:19;12.30;99.90
15143;DHT22;7672;50.834;6.286;2023-03-14T09:36:46;11.90;99.90
15143;DHT22;7672;50.834;6.286;2023-03-14T09:39:13;11.90;99.90
15143;DHT22;7672;50.834;6.286;2023-03-14T09:41:44;11.80;99.90
15143;DHT22;7672;50.834;6.286;2023-03-14T09:44:24;11.70;99.90
15143;DHT22;7672;50.834;6.286;2023-03-14T09:46:57;11.60;99.90
15143;DHT22;7672;50.834;6.286;2023-03-14T09:49:32;11.50;99.90
15143;DHT22;7672;50.834;6.286;2023-03-14T09:52:05;11.50;99.90
15143;DHT22;7672;50.834;6.286;2023-03-14T09:57:21;11.40;99.90
15143;DHT22;7672;50.834;6.286;2023-03-14T09:59:54;11.40;99.90
15143;DHT22;7672;50.834;6.286;2023-03-14T10:02:30;11.40;99.90
15143;DHT22;7672;50.834;6.286;2023-03-14T10:05:01;11.40;99.90
15143;DHT22;7672;50.834;6.286;2023-03-14T10:07:33;11.40;99.90
15143;DHT22;7672;50.834;6.286;2023-03-14T10:10:00;11.40;99.90
15143;DHT22;7672;50.834;6.286;2023-03-14T10:12:32;11.40;99.90
15143;DHT22;7672;50.834;6.286;2023-03-14T10:15:12;11.50;99.90
15143;DHT22;7672;50.834;6.286;2023-03-14T10:17:47;11.40;99.90
15143;DHT22;7672;50.834;6.286;2023-03-14T10:25:46;11.30;99.90
15143;DHT22;7672;50.834;6.286;2023-03-14T10:28:28;11.30;99.90
15143;DHT22;7672;50.834;6.286;2023-03-14T10:30:57;11.30;99.90
15143;DHT22;7672;50.834;6.286;2023-03-14T10:33:30;11.60;99.90
15143;DHT22;7672;50.834;6.286;2023-03-14T10:36:27;11.30;99.90
15143;DHT22;7672;50.834;6.286;2023-03-14T10:41:48;11.40;99.90
15143;DHT22;7672;50.834;6.286;2023-03-14T10:44:22;11.50;99.90
15143;DHT22;7672;50.834;6.286;2023-03-14T10:47:15;11.50;99.90
15143;DHT22;7672;50.834;6.286;2023-03-14T10:49:45;11.60;99.90
15143;DHT22;7672;50.834;6.286;2023-03-14T10:52:18;11.60;99.90
15143;DHT22;7672;50.834;6.286;2023-03-14T10:55:04;11.70;99.90
15143;DHT22;7672;50.834;6.286;2023-03-14T10:57:43;11.70;99.90
15143;DHT22;7672;50.834;6.286;2023-03-14T11:00:14;11.70;99.90
15143;DHT22;7672;50.834;6.286;2023-03-14T11:05:46;11.70;99.90
15143;DHT22;7672;50.834;6.286;2023-03-14T11:11:22;11.80;99.90
15143;DHT22;7672;50.834;6.286;2023-03-14T11:14:08;11.80;99.90
15143;DHT22;7672;50.834;6.286;2023-03-14T11:17:07;11.80;99.90
15143;DHT22;7672;50.834;6.286;2023-03-14T11:25:51;11.90;99.90
15143;DHT22;7672;50.834;6.286;2023-03-14T11:31:20;12.10;99.90
15143;DHT22;7672;50.834;6.286;2023-03-14T11:33:56;12.30;99.90
15143;DHT22;7672;50.834;6.286;2023-03-14T11:36:44;12.40;99.90
15143;DHT22;7672;50.834;6.286;2023-03-14T11:39:18;12.60;99.90
15143;DHT22;7672;50.834;6.286;2023-03-14T11:41:50;12.70;99.90
15143;DHT22;7672;50.834;6.286;2023-03-14T11:44:57;12.90;99.90
15143;DHT22;7672;50.834;6.286;2023-03-14T11:55:31;12.60;99.90
15143;DHT22;7672;50.834;6.286;2023-03-14T11:58:12;12.40;99.90
15143;DHT22;7672;50.834;6.286;2023-03-14T12:00:40;12.20;99.90
15143;DHT22;7672;50.834;6.286;2023-03-14T12:03:14;12.00;99.90
15143;DHT22;7672;50.834;6.286;2023-03-14T12:05:58;11.80;99.90
15143;DHT22;7672;50.834;6.286;2023-03-14T12:11:34;11.40;99.90
15143;DHT22;7672;50.834;6.286;2023-03-14T12:14:24;11.30;99.90
15143;DHT22;7672;50.834;6.286;2023-03-14T12:17:21;11.20;99.90
15143;DHT22;7672;50.834;6.286;2023-03-14T12:20:22;11.00;99.90
15143;DHT22;7672;50.834;6.286;2023-03-14T12:22:57;11.00;99.90
15143;DHT22;7672;50.834;6.286;2023-03-14T12:25:33;10.90;99.90
15143;DHT22;7672;50.834;6.286;2023-03-14T12:28:21;10.90;99.90
15143;DHT22;7672;50.834;6.286;2023-03-14T12:31:35;10.90;99.90
15143;DHT22;7672;50.834;6.286;2023-03-14T12:45:39;10.90;99.90
15143;DHT22;7672;50.834;6.286;2023-03-14T12:48:10;10.90;99.90
15143;DHT22;7672;50.834;6.286;2023-03-14T12:50:53;10.90;99.90
15143;DHT22;7672;50.834;6.286;2023-03-14T12:56:45;11.00;99.90
15143;DHT22;7672;50.834;6.286;2023-03-14T12:59:28;11.00;99.90
15143;DHT22;7672;50.834;6.286;2023-03-14T13:02:01;11.00;99.90
15143;DHT22;7672;50.834;6.286;2023-03-14T13:15:47;11.00;99.90
15143;DHT22;7672;50.834;6.286;2023-03-14T13:21:35;11.10;99.90
15143;DHT22;7672;50.834;6.286;2023-03-14T13:24:04;11.10;99.90
15143;DHT22;7672;50.834;6.286;2023-03-14T13:26:40;11.10;99.90
15143;DHT22;7672;50.834;6.286;2023-03-14T13:31:50;11.10;99.90
15143;DHT22;7672;50.834;6.286;2023-03-14T13:34:19;11.10;99.90
15143;DHT22;7672;50.834;6.286;2023-03-14T13:36:47;11.10;99.90
15143;DHT22;7672;50.834;6.286;2023-03-14T13:39:19;11.00;99.90
15143;DHT22;7672;50.834;6.286;2023-03-14T13:41:55;11.00;99.90
15143;DHT22;7672;50.834;6.286;2023-03-14T13:44:29;10.90;99.90
15143;DHT22;7672;50.834;6.286;2023-03-14T13:46:59;10.90;99.90
15143;DHT22;7672;50.834;6.286;2023-03-14T13:49:29;10.80;99.90
15143;DHT22;7672;50.834;6.286;2023-03-14T13:51:58;10.70;99.90
15143;DHT22;7672;50.834;6.286;2023-03-14T13:54:27;10.60;99.90
15143;DHT22;7672;50.834;6.286;2023-03-14T13:57:03;10.60;99.90
15143;DHT22;7672;50.834;6.286;2023-03-14T13:59:33;10.50;99.90
15143;DHT22;7672;50.834;6.286;2023-03-14T14:02:09;10.40;99.90
15143;DHT22;7672;50.834;6.286;2023-03-14T14:04:43;10.40;99.90
15143;DHT22;7672;50.834;6.286;2023-03-14T14:07:15;10.30;99.90
15143;DHT22;7672;50.834;6.286;2023-03-14T14:09:49;10.30;99.90
15143;DHT22;7672;50.834;6.286;2023-03-14T14:12:27;10.30;99.90
15143;DHT22;7672;50.834;6.286;2023-03-14T14:14:58;10.20;99.90
15143;DHT22;7672;50.834;6.286;2023-03-14T14:17:36;10.20;99.90
15143;DHT22;7672;50.834;6.286;2023-03-14T14:20:19;10.20;99.90
15143;DHT22;7672;50.834;6.286;2023-03-14T14:22:50;10.20;99.90
15143;DHT22;7672;50.834;6.286;2023-03-14T14:25:18;10.20;99.90
15143;DHT22;7672;50.834;6.286;2023-03-14T14:27:49;10.20;99.90
15143;DHT22;7672;50.834;6.286;2023-03-14T14:32:44;10.10;99.90
15143;DHT22;7672;50.834;6.286;2023-03-14T14:35:32;10.10;99.90
15143;DHT22;7672;50.834;6.286;2023-03-14T14:38:02;10.10;99.90
15143;DHT22;7672;50.834;6.286;2023-03-14T14:40:44;10.10;99.90
15143;DHT22;7672;50.834;6.286;2023-03-14T14:43:18;10.10;99.90
15143;DHT22;7672;50.834;6.286;2023-03-14T14:45:50;10.10;99.90
15143;DHT22;7672;50.834;6.286;2023-03-14T14:48:27;10.10;99.90
15143;DHT22;7672;50.834;6.286;2023-03-14T14:51:00;10.10;99.90
15143;DHT22;7672;50.834;6.286;2023-03-14T14:56:14;10.10;99.90
15143;DHT22;7672;50.834;6.286;2023-03-14T14:58:47;10.10;99.90
15143;DHT22;7672;50.834;6.286;2023-03-14T15:01:22;10.20;99.90
15143;DHT22;7672;50.834;6.286;2023-03-14T15:03:51;10.20;99.90
15143;DHT22;7672;50.834;6.286;2023-03-14T15:06:27;10.30;99.90
15143;DHT22;7672;50.834;6.286;2023-03-14T15:08:55;10.30;99.90
15143;DHT22;7672;50.834;6.286;2023-03-14T15:11:25;10.40;99.90
15143;DHT22;7672;50.834;6.286;2023-03-14T15:13:53;10.50;99.90
15143;DHT22;7672;50.834;6.286;2023-03-14T15:16:24;10.40;99.90
15143;DHT22;7672;50.834;6.286;2023-03-14T15:18:56;10.40;99.90
15143;DHT22;7672;50.834;6.286;2023-03-14T15:21:48;10.40;99.90
15143;DHT22;7672;50.834;6.286;2023-03-14T15:24:15;10.40;99.90
15143;DHT22;7672;50.834;6.286;2023-03-14T15:26:42;10.40;99.90
15143;DHT22;7672;50.834;6.286;2023-03-14T15:29:12;10.30;99.90
15143;DHT22;7672;50.834;6.286;2023-03-14T15:31:40;10.30;99.90
15143;DHT22;7672;50.834;6.286;2023-03-14T15:34:08;10.30;99.90
15143;DHT22;7672;50.834;6.286;2023-03-14T15:36:35;10.30;99.90
15143;DHT22;7672;50.834;6.286;2023-03-14T15:39:05;10.20;99.90
15143;DHT22;7672;50.834;6.286;2023-03-14T15:41:33;10.20;99.90
15143;DHT22;7672;50.834;6.286;2023-03-14T15:44:01;10.20;99.90
15143;DHT22;7672;50.834;6.286;2023-03-14T15:46:27;10.20;99.90
15143;DHT22;7672;50.834;6.286;2023-03-14T15:48:56;10.20;99.90
15143;DHT22;7672;50.834;6.286;2023-03-14T15:51:23;10.10;99.90
15143;DHT22;7672;50.834;6.286;2023-03-14T15:53:50;10.10;99.90
15143;DHT22;7672;50.834;6.286;2023-03-14T15:56:19;10.10;99.90
15143;DHT22;7672;50.834;6.286;2023-03-14T15:58:47;10.00;99.90
15143;DHT22;7672;50.834;6.286;2023-03-14T16:01:15;10.00;99.90
15143;DHT22;7672;50.834;6.286;2023-03-14T16:03:43;9.90;99.90
15143;DHT22;7672;50.834;6.286;2023-03-14T16:06:15;9.80;99.90
15143;DHT22;7672;50.834;6.286;2023-03-14T16:08:42;9.70;99.90
15143;DHT22;7672;50.834;6.286;2023-03-14T16:11:10;9.70;99.90
15143;DHT22;7672;50.834;6.286;2023-03-14T16:13:38;9.60;99.90
15143;DHT22;7672;50.834;6.286;2023-03-14T16:16:06;9.50;99.90
15143;DHT22;7672;50.834;6.286;2023-03-14T16:18:36;9.50;99.90
15143;DHT22;7672;50.834;6.286;2023-03-14T16:21:16;9.40;99.90
15143;DHT22;7672;50.834;6.286;2023-03-14T16:23:44;9.40;99.90
15143;DHT22;7672;50.834;6.286;2023-03-14T16:26:16;9.40;99.90
15143;DHT22;7672;50.834;6.286;2023-03-14T16:28:45;9.40;99.90
15143;DHT22;7672;50.834;6.286;2023-03-14T16:31:16;9.30;99.90
15143;DHT22;7672;50.834;6.286;2023-03-14T16:33:46;9.30;99.90
15143;DHT22;7672;50.834;6.286;2023-03-14T16:36:14;9.20;99.90
15143;DHT22;7672;50.834;6.286;2023-03-14T16:38:42;9.20;99.90
15143;DHT22;7672;50.834;6.286;2023-03-14T16:41:18;9.20;99.90
15143;DHT22;7672;50.834;6.286;2023-03-14T16:43:46;9.10;99.90
15143;DHT22;7672;50.834;6.286;2023-03-14T16:46:18;9.10;99.90
15143;DHT22;7672;50.834;6.286;2023-03-14T16:48:45;9.00;99.90
15143;DHT22;7672;50.834;6.286;2023-03-14T16:51:13;9.00;99.90
15143;DHT22;7672;50.834;6.286;2023-03-14T16:53:42;9.00;99.90
15143;DHT22;7672;50.834;6.286;2023-03-14T16:56:10;9.00;99.90
15143;DHT22;7672;50.834;6.286;2023-03-14T16:58:38;8.90;99.90
15143;DHT22;7672;50.834;6.286;2023-03-14T17:01:06;8.90;99.90
15143;DHT22;7672;50.834;6.286;2023-03-14T17:03:39;8.90;99.90
15143;DHT22;7672;50.834;6.286;2023-03-14T17:06:13;8.80;99.90
15143;DHT22;7672;50.834;6.286;2023-03-14T17:08:41;8.80;99.90
15143;DHT22;7672;50.834;6.286;2023-03-14T17:11:09;8.80;99.90
15143;DHT22;7672;50.834;6.286;2023-03-14T17:13:38;8.80;99.90
15143;DHT22;7672;50.834;6.286;2023-03-14T17:16:05;8.70;99.90
15143;DHT22;7672;50.834;6.286;2023-03-14T17:18:32;8.70;99.90
15143;DHT22;7672;50.834;6.286;2023-03-14T17:20:59;8.70;99.90
15143;DHT22;7672;50.834;6.286;2023-03-14T17:23:29;8.60;99.90
15143;DHT22;7672;50.834;6.286;2023-03-14T17:25:57;8.80;99.90
15143;DHT22;7672;50.834;6.286;2023-03-14T17:28:25;8.60;99.90
15143;DHT22;7672;50.834;6.286;2023-03-14T17:31:07;8.50;99.90